Time;durP1;ratioP1;P1;durP2;ratioP2;P2;SDS_P1;SDS_P2;PMS_P1;PMS_P2;Temp;Humidity;BMP_temperature;BMP_pressure;BME280_temperature;BME280_humidity;BME280_pressure;Samples;Min_cycle;Max_cycle;Signal;HPM_P1;HPM_P2
2022/02/28 00:00:23;;;;;;;5.63;2.05;;;4.90;99.90;;;;;;5040092;28;20030;-67
2022/02/28 00:02:49;;;;;;;2.95;1.35;;;4.80;99.90;;;;;;5039777;28;20025;-67
2022/02/28 00:05:16;;;;;;;3.35;1.52;;;4.90;99.90;;;;;;5038647;28;20090;-67
2022/02/28 00:07:42;;;;;;;4.45;1.65;;;4.80;99.90;;;;;;5038401;28;20112;-67
2022/02/28 00:10:08;;;;;;;6.70;2.13;;;4.80;99.90;;;;;;5041161;28;20413;-67
2022/02/28 00:12:35;;;;;;;4.40;1.77;;;4.80;99.90;;;;;;5035438;28;20021;-67
2022/02/28 00:15:02;;;;;;;5.82;1.60;;;4.70;99.90;;;;;;5039837;28;20685;-67
2022/02/28 00:17:28;;;;;;;2.70;1.50;;;4.70;99.90;;;;;;5035556;28;20025;-67
2022/02/28 00:19:53;;;;;;;2.58;1.38;;;4.70;99.90;;;;;;5031988;28;20028;-67
2022/02/28 00:22:19;;;;;;;6.80;2.58;;;4.70;99.90;;;;;;5036156;28;20028;-67
2022/02/28 00:24:45;;;;;;;3.28;1.42;;;4.80;99.90;;;;;;5035166;28;20501;-67
2022/02/28 00:27:10;;;;;;;3.78;1.85;;;4.80;99.90;;;;;;5044545;28;20029;-67
2022/02/28 00:29:36;;;;;;;4.03;1.58;;;4.80;99.90;;;;;;5003447;28;1083773;-67
2022/02/28 00:32:02;;;;;;;4.88;2.22;;;4.90;99.90;;;;;;5045934;28;20047;-67
2022/02/28 00:34:28;;;;;;;4.68;1.83;;;4.90;99.90;;;;;;5038567;28;20497;-67
2022/02/28 00:36:56;;;;;;;2.83;1.27;;;4.90;99.90;;;;;;5050010;28;20041;-67
2022/02/28 00:39:22;;;;;;;8.07;2.53;;;4.90;99.90;;;;;;5041892;28;20474;-67
2022/02/28 00:41:47;;;;;;;4.25;1.73;;;4.90;99.90;;;;;;5039348;28;20532;-67
2022/02/28 00:44:13;;;;;;;3.83;1.52;;;5.00;99.90;;;;;;5033942;28;20017;-67
2022/02/28 00:46:40;;;;;;;4.05;1.42;;;5.00;99.90;;;;;;5040816;28;20024;-67
2022/02/28 00:49:06;;;;;;;3.33;1.90;;;4.90;99.90;;;;;;5038241;28;20049;-67
2022/02/28 00:51:32;;;;;;;7.88;2.40;;;4.90;99.90;;;;;;5041253;28;20052;-67
2022/02/28 00:53:58;;;;;;;3.60;1.60;;;4.90;99.90;;;;;;5038584;28;20032;-67
2022/02/28 00:56:23;;;;;;;2.95;1.70;;;4.90;99.90;;;;;;5039766;28;20033;-67
2022/02/28 00:58:49;;;;;;;7.47;2.83;;;5.00;99.90;;;;;;5036290;28;20064;-67
2022/02/28 01:01:14;;;;;;;6.13;1.67;;;4.90;99.90;;;;;;5045483;28;20022;-67
2022/02/28 01:03:40;;;;;;;2.75;1.70;;;4.90;99.90;;;;;;5038477;28;20029;-67
2022/02/28 01:06:06;;;;;;;4.40;2.03;;;4.80;99.90;;;;;;5042037;28;20029;-67
2022/02/28 01:08:32;;;;;;;2.03;1.20;;;4.90;99.90;;;;;;5038728;28;20435;-67
2022/02/28 01:10:57;;;;;;;4.03;1.73;;;4.80;99.90;;;;;;5038141;28;20036;-67
2022/02/28 01:13:23;;;;;;;5.28;1.45;;;4.90;99.90;;;;;;5035578;28;20053;-67
2022/02/28 01:15:49;;;;;;;5.50;2.35;;;4.90;99.90;;;;;;5043153;28;20103;-67
2022/02/28 01:18:15;;;;;;;5.22;1.83;;;4.90;99.90;;;;;;5034812;28;20427;-67
2022/02/28 01:20:41;;;;;;;5.45;1.95;;;4.80;99.90;;;;;;5036816;28;20040;-67
2022/02/28 01:23:06;;;;;;;5.50;1.90;;;4.70;99.90;;;;;;5041213;28;20380;-67
2022/02/28 01:25:32;;;;;;;3.47;1.52;;;4.60;99.90;;;;;;5038769;28;20025;-67
2022/02/28 01:27:58;;;;;;;4.10;1.95;;;4.60;99.90;;;;;;5038269;28;20033;-67
2022/02/28 01:30:24;;;;;;;2.88;1.30;;;4.40;99.90;;;;;;5043529;28;20682;-67
2022/02/28 01:32:49;;;;;;;5.70;2.22;;;4.40;99.90;;;;;;5038067;28;20033;-67
2022/02/28 01:35:15;;;;;;;4.68;2.08;;;4.40;99.90;;;;;;5042778;28;20029;-67
2022/02/28 01:37:41;;;;;;;3.88;2.03;;;4.20;99.90;;;;;;5038013;28;20033;-67
2022/02/28 01:40:10;;;;;;;3.72;1.92;;;4.10;99.90;;;;;;5039185;28;20040;-67
2022/02/28 01:42:35;;;;;;;4.35;1.30;;;4.10;99.90;;;;;;5031737;28;20014;-67
2022/02/28 01:45:01;;;;;;;9.85;1.45;;;3.90;99.90;;;;;;5040686;28;20131;-67
2022/02/28 01:47:27;;;;;;;4.93;1.85;;;3.70;99.90;;;;;;5041283;28;20512;-67
2022/02/28 01:49:53;;;;;;;4.72;1.92;;;3.60;99.90;;;;;;5035847;28;20044;-67
2022/02/28 01:52:18;;;;;;;3.60;1.65;;;3.50;99.90;;;;;;5043099;28;20438;-67
2022/02/28 01:54:45;;;;;;;4.43;2.03;;;3.50;99.90;;;;;;5038746;28;20108;-67
2022/02/28 01:57:11;;;;;;;4.07;1.83;;;3.60;99.90;;;;;;5042380;28;20029;-67
2022/02/28 01:59:36;;;;;;;4.63;1.77;;;3.60;99.90;;;;;;5039202;28;20032;-67
2022/02/28 02:02:02;;;;;;;4.50;2.08;;;3.40;99.90;;;;;;5047661;28;20048;-68
2022/02/28 02:04:29;;;;;;;5.35;1.95;;;3.50;99.90;;;;;;5045552;28;20025;-67
2022/02/28 02:06:54;;;;;;;3.25;1.73;;;3.30;99.90;;;;;;5038090;28;20598;-67
2022/02/28 02:09:20;;;;;;;4.80;1.75;;;3.20;99.90;;;;;;5044877;28;20108;-67
2022/02/28 02:11:46;;;;;;;2.80;1.70;;;3.00;99.90;;;;;;5036983;28;20029;-67
2022/02/28 02:14:12;;;;;;;6.55;2.47;;;2.70;99.90;;;;;;5039280;28;20028;-67
2022/02/28 02:16:39;;;;;;;4.00;1.90;;;2.60;99.90;;;;;;5029076;28;20033;-67
2022/02/28 02:19:05;;;;;;;3.38;1.58;;;2.40;99.90;;;;;;5039862;28;20029;-67
2022/02/28 02:21:31;;;;;;;4.10;2.08;;;2.50;99.90;;;;;;5038752;28;20024;-67
2022/02/28 02:23:56;;;;;;;5.05;2.42;;;2.40;99.90;;;;;;5043193;28;20021;-67
2022/02/28 02:26:22;;;;;;;2.47;1.48;;;2.20;99.90;;;;;;5040276;28;20091;-67
2022/02/28 02:28:48;;;;;;;5.05;2.53;;;1.90;99.90;;;;;;5037509;28;20513;-67
2022/02/28 02:31:13;;;;;;;6.22;1.55;;;2.00;99.90;;;;;;5044209;28;20033;-67
2022/02/28 02:33:39;;;;;;;5.38;2.03;;;1.90;99.90;;;;;;5040893;28;20160;-67
2022/02/28 02:36:07;;;;;;;7.32;2.65;;;1.90;99.90;;;;;;5044122;28;20030;-67
2022/02/28 02:38:35;;;;;;;8.65;2.70;;;1.90;99.90;;;;;;5049540;28;20516;-67
2022/02/28 02:41:03;;;;;;;3.78;1.80;;;1.80;99.90;;;;;;5038453;28;20029;-67
2022/02/28 02:43:29;;;;;;;6.28;2.05;;;1.70;99.90;;;;;;5037110;28;20076;-67
2022/02/28 02:45:54;;;;;;;3.03;1.50;;;1.70;99.90;;;;;;5042856;28;20057;-67
2022/02/28 02:48:23;;;;;;;4.85;1.95;;;1.60;99.90;;;;;;5041918;28;20091;-67
2022/02/28 02:50:49;;;;;;;3.75;1.67;;;1.30;99.90;;;;;;5034456;28;20121;-67
2022/02/28 02:53:15;;;;;;;5.25;2.17;;;1.20;99.90;;;;;;5040825;28;20033;-67
2022/02/28 02:55:41;;;;;;;2.78;1.60;;;1.20;99.90;;;;;;5038016;28;20041;-67
2022/02/28 02:58:07;;;;;;;8.95;1.95;;;1.40;99.90;;;;;;5032655;28;20485;-67
2022/02/28 03:00:35;;;;;;;5.47;1.90;;;1.50;99.90;;;;;;5038762;28;20036;-67
2022/02/28 03:03:00;;;;;;;4.82;2.10;;;1.50;99.90;;;;;;5037460;28;20025;-67
2022/02/28 03:05:26;;;;;;;3.88;1.75;;;1.40;99.90;;;;;;5037252;28;20504;-67
2022/02/28 03:07:52;;;;;;;2.92;1.45;;;1.20;99.90;;;;;;5038107;28;20043;-67
2022/02/28 03:10:18;;;;;;;3.22;1.90;;;1.10;99.90;;;;;;5034828;28;20116;-67
2022/02/28 03:12:44;;;;;;;3.05;1.35;;;1.10;99.90;;;;;;5035203;28;20113;-67
2022/02/28 03:15:11;;;;;;;3.50;1.50;;;0.80;99.90;;;;;;5035284;28;20095;-67
2022/02/28 03:17:37;;;;;;;2.50;1.55;;;0.70;99.90;;;;;;5040083;28;20083;-67
2022/02/28 03:20:03;;;;;;;3.08;1.50;;;0.50;99.90;;;;;;5037821;28;20029;-67
2022/02/28 03:22:28;;;;;;;4.22;2.40;;;0.50;99.90;;;;;;5041832;28;20025;-67
2022/02/28 03:24:54;;;;;;;5.07;2.53;;;0.40;99.90;;;;;;5040947;28;20047;-67
2022/02/28 03:27:20;;;;;;;2.92;1.35;;;0.30;99.90;;;;;;5051960;28;20024;-67
2022/02/28 03:29:46;;;;;;;4.80;1.65;;;0.20;99.90;;;;;;5038373;28;20481;-67
2022/02/28 03:32:12;;;;;;;2.60;1.52;;;0.30;99.90;;;;;;5043988;28;20103;-67
2022/02/28 03:34:37;;;;;;;4.25;2.22;;;0.20;99.90;;;;;;5045314;28;20087;-67
2022/02/28 03:37:03;;;;;;;5.90;2.40;;;0.10;99.90;;;;;;5046578;28;20092;-67
2022/02/28 03:39:29;;;;;;;3.00;1.38;;;0.00;99.90;;;;;;5044937;28;20417;-67
2022/02/28 03:41:55;;;;;;;3.88;2.20;;;-0.10;99.90;;;;;;5038970;28;20030;-67
2022/02/28 03:44:21;;;;;;;3.15;1.85;;;0.00;99.90;;;;;;5039448;28;20596;-67
2022/02/28 03:46:48;;;;;;;7.65;3.15;;;-0.20;99.90;;;;;;5044428;28;20092;-67
2022/02/28 03:49:15;;;;;;;3.40;1.73;;;-0.10;99.90;;;;;;5045343;28;20024;-67
2022/02/28 03:51:41;;;;;;;2.85;1.73;;;-0.10;99.90;;;;;;5041380;28;20044;-67
2022/02/28 03:54:10;;;;;;;2.65;1.52;;;-0.20;99.90;;;;;;5041740;28;20029;-67
2022/02/28 03:56:38;;;;;;;2.80;1.58;;;-0.20;99.90;;;;;;5037169;28;20086;-67
2022/02/28 03:59:03;;;;;;;3.35;1.88;;;-0.40;99.90;;;;;;5045836;28;20515;-67
2022/02/28 04:01:29;;;;;;;6.60;2.38;;;-0.60;99.90;;;;;;5042598;28;20056;-68
2022/02/28 04:03:55;;;;;;;5.00;2.33;;;-0.70;99.90;;;;;;5044242;28;20029;-67
2022/02/28 04:06:20;;;;;;;3.05;1.77;;;-0.60;99.90;;;;;;5040317;28;20389;-67
2022/02/28 04:08:46;;;;;;;4.13;1.85;;;-0.70;99.90;;;;;;5043046;28;20040;-67
2022/02/28 04:11:12;;;;;;;3.70;1.67;;;-0.70;99.90;;;;;;5046706;28;20048;-67
2022/02/28 04:13:38;;;;;;;1.65;1.23;;;-0.80;99.90;;;;;;5036899;28;20033;-67
2022/02/28 04:16:04;;;;;;;4.38;1.85;;;-0.80;99.90;;;;;;5039453;28;20078;-67
2022/02/28 04:18:29;;;;;;;3.03;1.60;;;-0.90;99.90;;;;;;5037346;28;20033;-67
2022/02/28 04:20:56;;;;;;;4.53;1.95;;;-0.80;99.90;;;;;;5037715;28;20549;-67
2022/02/28 04:23:21;;;;;;;6.55;2.50;;;-0.50;99.90;;;;;;5045856;28;20026;-67
2022/02/28 04:25:47;;;;;;;5.43;1.65;;;-0.30;99.90;;;;;;5041616;28;20512;-67
2022/02/28 04:28:12;;;;;;;4.72;2.10;;;-0.30;99.90;;;;;;5036547;28;20033;-67
2022/02/28 04:30:38;;;;;;;2.55;1.23;;;-0.50;99.90;;;;;;5041072;28;20029;-67
2022/02/28 04:33:04;;;;;;;4.18;1.63;;;-0.60;99.90;;;;;;5037996;28;20397;-67
2022/02/28 04:35:30;;;;;;;4.57;1.70;;;-0.60;99.90;;;;;;5047383;28;20649;-67
2022/02/28 04:37:55;;;;;;;3.00;1.88;;;-0.70;99.90;;;;;;5043804;28;20159;-67
2022/02/28 04:40:21;;;;;;;5.95;2.70;;;-0.90;99.90;;;;;;5046557;28;20021;-67
2022/02/28 04:42:46;;;;;;;18.13;2.35;;;-0.90;99.90;;;;;;5051165;28;20036;-67
2022/02/28 04:45:12;;;;;;;8.02;2.45;;;-1.00;99.90;;;;;;5042800;28;20032;-67
2022/02/28 04:47:38;;;;;;;5.50;2.92;;;-1.10;99.90;;;;;;5045189;28;20104;-67
2022/02/28 04:50:04;;;;;;;8.63;2.45;;;-1.30;99.90;;;;;;5038799;28;20182;-67
2022/02/28 04:52:29;;;;;;;3.92;2.15;;;-1.50;99.90;;;;;;5044987;28;20036;-67
2022/02/28 04:54:55;;;;;;;4.47;2.05;;;-1.60;99.90;;;;;;5046600;28;20029;-67
2022/02/28 04:57:20;;;;;;;3.13;1.50;;;-1.50;99.90;;;;;;5048760;28;20033;-67
2022/02/28 04:59:46;;;;;;;4.03;1.90;;;-1.70;99.90;;;;;;5046697;28;20029;-67
2022/02/28 05:02:12;;;;;;;11.63;1.90;;;-1.60;99.90;;;;;;5040050;28;20021;-67
2022/02/28 05:04:38;;;;;;;6.50;2.75;;;-1.70;99.90;;;;;;5039104;28;20056;-67
2022/02/28 05:07:04;;;;;;;2.35;1.23;;;-1.70;99.90;;;;;;5035681;28;20699;-67
2022/02/28 05:09:29;;;;;;;5.55;2.13;;;-1.80;99.90;;;;;;5036909;28;20078;-67
2022/02/28 05:11:55;;;;;;;3.78;1.83;;;-1.70;99.90;;;;;;5032275;28;20044;-67
2022/02/28 05:14:20;;;;;;;4.65;2.00;;;-1.80;99.90;;;;;;5033269;28;20025;-67
2022/02/28 05:16:50;;;;;;;7.30;2.05;;;-1.80;99.90;;;;;;5033484;28;20020;-67
2022/02/28 05:19:16;;;;;;;;;;;-1.90;99.90;;;;;;5035154;28;20771;-67
2022/02/28 05:21:42;;;;;;;4.47;1.48;;;-1.90;99.90;;;;;;5030796;28;19948;-67
2022/02/28 05:24:07;;;;;;;3.17;1.33;;;-1.90;99.90;;;;;;5038773;28;20071;-67
2022/02/28 05:26:33;;;;;;;4.25;2.17;;;-1.90;99.90;;;;;;5047673;28;20025;-68
2022/02/28 05:28:58;;;;;;;3.08;1.50;;;-2.00;99.90;;;;;;5039656;28;20052;-68
2022/02/28 05:31:24;;;;;;;4.22;2.55;;;-1.90;99.90;;;;;;5040770;28;20147;-68
2022/02/28 05:33:49;;;;;;;7.50;2.28;;;-1.80;99.90;;;;;;5040171;28;20379;-68
2022/02/28 05:36:15;;;;;;;3.15;1.90;;;-1.80;99.90;;;;;;5043365;28;20102;-68
2022/02/28 05:38:41;;;;;;;1.88;1.25;;;-1.90;99.90;;;;;;5043744;28;20028;-67
2022/02/28 05:41:06;;;;;;;3.00;1.85;;;-2.10;99.90;;;;;;5041743;28;20045;-68
2022/02/28 05:43:32;;;;;;;2.72;1.40;;;-1.90;99.90;;;;;;5040388;28;20026;-68
2022/02/28 05:45:58;;;;;;;3.10;1.67;;;-1.70;99.90;;;;;;5042387;28;20033;-67
2022/02/28 05:48:23;;;;;;;4.45;2.15;;;-1.60;99.90;;;;;;5038318;28;20025;-68
2022/02/28 05:50:49;;;;;;;8.50;2.30;;;-1.80;99.90;;;;;;5039479;28;20034;-68
2022/02/28 05:53:14;;;;;;;4.68;2.60;;;-1.90;99.90;;;;;;5042565;28;20044;-68
2022/02/28 05:55:40;;;;;;;4.50;2.03;;;-2.00;99.90;;;;;;5045007;28;20056;-68
2022/02/28 05:58:06;;;;;;;3.05;1.77;;;-2.00;99.90;;;;;;5036260;28;20031;-67
2022/02/28 06:00:31;;;;;;;3.85;2.35;;;-1.80;99.90;;;;;;5038171;28;20025;-67
2022/02/28 06:02:57;;;;;;;7.65;2.17;;;-1.90;99.90;;;;;;5037682;28;20041;-67
2022/02/28 06:05:23;;;;;;;4.78;1.85;;;-1.90;99.90;;;;;;5043068;28;20024;-67
2022/02/28 06:07:48;;;;;;;10.48;2.95;;;-1.80;99.90;;;;;;5044103;28;20412;-67
2022/02/28 06:10:14;;;;;;;4.53;2.13;;;-2.00;99.90;;;;;;5045360;28;20120;-68
2022/02/28 06:12:40;;;;;;;5.90;3.10;;;-2.00;99.90;;;;;;5040827;28;20401;-68
2022/02/28 06:15:07;;;;;;;4.38;2.22;;;-2.20;99.90;;;;;;5045385;28;20036;-68
2022/02/28 06:17:32;;;;;;;3.83;2.00;;;-2.30;99.90;;;;;;5046601;28;20024;-69
2022/02/28 06:19:58;;;;;;;7.05;3.72;;;-2.50;99.90;;;;;;5039443;28;20025;-68
2022/02/28 06:22:25;;;;;;;7.90;3.92;;;-2.50;99.90;;;;;;5045912;28;20021;-68
2022/02/28 06:24:51;;;;;;;5.53;2.63;;;-2.60;99.90;;;;;;5040119;28;20037;-68
2022/02/28 06:27:17;;;;;;;11.13;4.32;;;-2.60;99.90;;;;;;5039146;28;20385;-68
2022/02/28 06:29:43;;;;;;;4.30;2.40;;;-2.60;99.90;;;;;;5038112;28;20041;-68
2022/02/28 06:32:10;;;;;;;8.68;3.00;;;-2.50;99.90;;;;;;5037196;28;20599;-68
2022/02/28 06:34:35;;;;;;;4.40;2.13;;;-2.50;99.90;;;;;;5038929;28;20024;-68
2022/02/28 06:37:01;;;;;;;4.72;2.63;;;-2.30;99.90;;;;;;5042438;28;20017;-68
2022/02/28 06:39:27;;;;;;;6.85;3.00;;;-2.30;99.90;;;;;;5044061;28;20620;-68
2022/02/28 06:41:54;;;;;;;4.47;2.35;;;-2.30;99.90;;;;;;5037547;28;20090;-68
2022/02/28 06:44:20;;;;;;;7.05;2.70;;;-2.20;99.90;;;;;;5035789;28;20480;-67
2022/02/28 06:46:46;;;;;;;4.10;2.53;;;-2.10;99.90;;;;;;5046476;28;20567;-67
2022/02/28 06:49:11;;;;;;;6.10;2.25;;;-2.20;99.90;;;;;;5045115;28;20135;-68
2022/02/28 06:51:37;;;;;;;3.28;2.05;;;-2.30;99.90;;;;;;5029606;28;20226;-68
2022/02/28 06:54:02;;;;;;;2.92;1.58;;;-2.20;99.90;;;;;;5043330;28;20043;-68
2022/02/28 06:56:29;;;;;;;3.80;2.42;;;-2.20;99.90;;;;;;5049706;28;20044;-68
2022/02/28 06:58:55;;;;;;;11.02;2.85;;;-1.90;99.90;;;;;;5048054;28;20578;-68
2022/02/28 07:01:21;;;;;;;11.68;1.90;;;-2.00;99.90;;;;;;5045200;28;20029;-68
2022/02/28 07:03:46;;;;;;;3.88;2.20;;;-1.90;99.90;;;;;;5035025;28;20044;-69
2022/02/28 07:06:14;;;;;;;3.30;1.90;;;-1.80;99.90;;;;;;5043321;28;20017;-69
2022/02/28 07:08:40;;;;;;;7.75;2.38;;;-1.60;99.90;;;;;;5048585;28;20025;-68
2022/02/28 07:11:06;;;;;;;9.75;3.10;;;-1.50;99.90;;;;;;5038407;28;20041;-69
2022/02/28 07:13:32;;;;;;;3.92;2.30;;;-1.50;99.90;;;;;;5037755;28;20096;-69
2022/02/28 07:15:58;;;;;;;8.50;2.28;;;-1.50;99.90;;;;;;5038554;28;20033;-69
2022/02/28 07:18:25;;;;;;;5.43;2.03;;;-1.50;99.90;;;;;;5041970;28;20025;-69
2022/02/28 07:20:51;;;;;;;6.60;3.28;;;-1.30;99.90;;;;;;5042584;28;20477;-69
2022/02/28 07:23:16;;;;;;;10.63;2.95;;;-1.30;99.90;;;;;;5041939;28;20032;-68
2022/02/28 07:25:42;;;;;;;3.30;1.85;;;-1.20;99.90;;;;;;5043264;28;20022;-69
2022/02/28 07:28:08;;;;;;;6.35;2.63;;;-1.20;99.90;;;;;;5048925;28;20131;-69
2022/02/28 07:30:34;;;;;;;4.43;2.03;;;-1.10;99.90;;;;;;5048345;28;20033;-69
2022/02/28 07:33:00;;;;;;;11.77;2.17;;;-0.90;99.90;;;;;;5047465;28;20219;-69
2022/02/28 07:35:25;;;;;;;6.30;2.80;;;-0.80;99.90;;;;;;5048807;28;20029;-69
2022/02/28 07:37:51;;;;;;;7.45;3.08;;;-0.60;99.90;;;;;;5042717;28;20043;-69
2022/02/28 07:40:17;;;;;;;11.10;3.15;;;-0.50;99.90;;;;;;5040362;28;20515;-69
2022/02/28 07:43:03;;;;;;;5.45;2.67;;;-0.50;99.90;;;;;;5038486;28;20131;-69
2022/02/28 07:45:29;;;;;;;6.20;2.35;;;-0.40;99.90;;;;;;4968972;28;20038;-69
2022/02/28 07:47:54;;;;;;;3.80;1.75;;;-0.30;99.90;;;;;;4983162;28;20049;-69
2022/02/28 07:50:21;;;;;;;4.18;2.58;;;-0.10;99.90;;;;;;4970629;28;20038;-69
2022/02/28 07:52:47;;;;;;;6.65;3.30;;;0.00;99.90;;;;;;4985712;28;20030;-69
2022/02/28 07:55:13;;;;;;;3.70;2.13;;;0.10;99.90;;;;;;4982697;28;20527;-69
2022/02/28 07:57:40;;;;;;;6.68;3.50;;;0.40;99.90;;;;;;4985398;28;20054;-69
2022/02/28 08:00:06;;;;;;;6.82;2.45;;;0.60;99.90;;;;;;4985622;28;20676;-69
2022/02/28 08:02:32;;;;;;;11.43;3.17;;;0.80;99.90;;;;;;4987563;28;20118;-69
2022/02/28 08:04:57;;;;;;;4.38;1.83;;;1.10;99.90;;;;;;4986986;28;20086;-69
2022/02/28 08:07:23;;;;;;;7.75;4.25;;;1.40;99.90;;;;;;4987260;28;20027;-69
2022/02/28 08:09:49;;;;;;;6.20;2.63;;;1.60;99.90;;;;;;4986620;28;20509;-69
2022/02/28 08:12:15;;;;;;;3.15;1.77;;;1.80;99.90;;;;;;4985613;28;20414;-69
2022/02/28 08:14:41;;;;;;;7.28;3.53;;;2.00;99.90;;;;;;4970365;28;20025;-69
2022/02/28 08:17:07;;;;;;;6.82;3.47;;;2.20;99.90;;;;;;4963900;28;20062;-71
2022/02/28 08:19:33;;;;;;;7.63;2.85;;;2.30;99.90;;;;;;4986465;28;20518;-69
2022/02/28 08:21:58;;;;;;;9.43;3.85;;;2.80;99.90;;;;;;5004501;28;20043;-69
2022/02/28 08:24:24;;;;;;;6.00;2.60;;;3.00;99.90;;;;;;5046974;28;20048;-69
2022/02/28 08:26:50;;;;;;;11.02;3.10;;;2.90;99.90;;;;;;5040940;28;20061;-69
2022/02/28 08:29:15;;;;;;;7.28;2.60;;;3.00;99.90;;;;;;5037814;28;20523;-69
2022/02/28 08:31:41;;;;;;;4.75;2.33;;;3.00;99.90;;;;;;5044384;28;20064;-69
2022/02/28 08:34:08;;;;;;;11.50;3.10;;;3.10;99.90;;;;;;5037011;28;20094;-69
2022/02/28 08:36:35;;;;;;;8.35;2.67;;;3.20;99.90;;;;;;5035100;28;20025;-69
2022/02/28 08:39:01;;;;;;;11.10;3.83;;;3.40;99.90;;;;;;5043572;28;20115;-69
2022/02/28 08:41:27;;;;;;;15.27;3.60;;;3.40;99.90;;;;;;5032753;28;20069;-69
2022/02/28 08:43:53;;;;;;;4.88;2.40;;;3.60;99.90;;;;;;5040489;28;20682;-69
2022/02/28 08:46:18;;;;;;;5.07;1.95;;;4.00;99.90;;;;;;5043665;28;20380;-69
2022/02/28 08:48:44;;;;;;;10.05;3.00;;;4.90;99.90;;;;;;5044401;28;20112;-69
2022/02/28 08:51:10;;;;;;;9.82;3.85;;;5.70;99.90;;;;;;5027764;28;20022;-69
2022/02/28 08:53:35;;;;;;;6.15;2.25;;;6.80;99.90;;;;;;5030378;28;20030;-69
2022/02/28 08:56:01;;;;;;;4.72;1.73;;;7.80;99.90;;;;;;5027282;28;20041;-69
2022/02/28 08:58:27;;;;;;;6.05;2.50;;;7.90;99.90;;;;;;5027388;28;20760;-70
2022/02/28 09:00:52;;;;;;;6.85;2.65;;;9.00;99.90;;;;;;5026375;28;20079;-70
2022/02/28 09:03:18;;;;;;;6.40;2.33;;;10.00;97.70;;;;;;5024308;28;20025;-70
2022/02/28 09:05:44;;;;;;;9.80;2.60;;;11.20;95.90;;;;;;5024181;28;20040;-70
2022/02/28 09:08:10;;;;;;;7.05;2.88;;;10.90;94.20;;;;;;5025204;28;20418;-69
2022/02/28 09:10:36;;;;;;;8.45;2.25;;;10.90;93.60;;;;;;5029842;28;20113;-69
2022/02/28 09:13:02;;;;;;;7.93;2.75;;;11.20;92.90;;;;;;5035598;28;20108;-69
2022/02/28 09:15:27;;;;;;;7.20;2.40;;;11.40;91.70;;;;;;5032818;28;20086;-69
2022/02/28 09:17:53;;;;;;;10.23;2.63;;;11.90;91.00;;;;;;5036847;28;20037;-70
2022/02/28 09:20:19;;;;;;;10.00;3.10;;;11.70;90.30;;;;;;5038983;28;20484;-70
2022/02/28 09:22:45;;;;;;;7.88;2.42;;;12.50;90.10;;;;;;5037207;28;20119;-70
2022/02/28 09:25:11;;;;;;;7.35;2.75;;;12.20;89.30;;;;;;5040730;28;20392;-70
2022/02/28 09:27:38;;;;;;;8.73;2.45;;;12.30;88.10;;;;;;5047077;28;20021;-70
2022/02/28 09:30:05;;;;;;;8.75;2.78;;;12.80;86.40;;;;;;5043584;28;20096;-70
2022/02/28 09:32:30;;;;;;;7.88;2.70;;;12.40;87.10;;;;;;5043943;28;20194;-70
2022/02/28 09:34:56;;;;;;;7.85;2.65;;;12.50;85.70;;;;;;5051747;28;20028;-70
2022/02/28 09:37:22;;;;;;;8.60;2.78;;;12.50;84.80;;;;;;5046995;28;20043;-70
2022/02/28 09:39:47;;;;;;;6.63;2.35;;;12.60;84.40;;;;;;5037489;28;20091;-70
2022/02/28 09:42:14;;;;;;;7.40;2.70;;;12.60;82.70;;;;;;5033460;28;20036;-70
2022/02/28 09:44:41;;;;;;;9.07;2.80;;;13.10;84.50;;;;;;5040036;28;20096;-70
2022/02/28 09:47:08;;;;;;;8.73;2.83;;;13.20;83.50;;;;;;5040319;28;20044;-70
2022/02/28 09:49:33;;;;;;;7.80;2.83;;;13.20;81.80;;;;;;5044687;28;20029;-70
2022/02/28 09:51:59;;;;;;;8.35;2.78;;;13.20;81.40;;;;;;5039878;28;20401;-70
2022/02/28 09:54:25;;;;;;;6.78;2.38;;;12.00;82.90;;;;;;5039516;28;20025;-70
2022/02/28 09:56:50;;;;;;;7.28;2.75;;;13.90;82.00;;;;;;5038889;28;20037;-70
2022/02/28 09:59:19;;;;;;;7.30;2.50;;;14.60;77.50;;;;;;5042465;28;20039;-69
2022/02/28 10:01:46;;;;;;;7.75;2.45;;;14.40;75.10;;;;;;5040368;28;20392;-70
2022/02/28 10:04:16;;;;;;;6.90;2.33;;;13.80;77.30;;;;;;5040741;28;20031;-70
2022/02/28 10:06:43;;;;;;;16.00;2.83;;;12.80;76.50;;;;;;5035161;28;20045;-70
2022/02/28 10:09:15;;;;;;;6.75;2.58;;;12.30;76.70;;;;;;5042648;28;20021;-69
2022/02/28 10:11:42;;;;;;;6.72;2.65;;;13.00;77.80;;;;;;5037408;28;20083;-69
2022/02/28 10:14:11;;;;;;;8.95;2.53;;;13.20;74.80;;;;;;5040800;28;20021;-70
2022/02/28 10:16:44;;;;;;;7.00;2.50;;;12.70;78.30;;;;;;5037801;28;20025;-70
2022/02/28 10:19:23;;;;;;;8.45;2.53;;;13.60;75.40;;;;;;5036753;28;20032;-69
2022/02/28 10:22:05;;;;;;;8.30;2.78;;;14.00;75.10;;;;;;5037996;28;20033;-69
2022/02/28 10:24:36;;;;;;;8.10;2.42;;;14.10;72.50;;;;;;5036493;28;20021;-70
2022/02/28 10:27:02;;;;;;;7.28;2.80;;;13.60;73.00;;;;;;5036065;28;20150;-70
2022/02/28 10:29:31;;;;;;;7.57;2.63;;;13.70;73.00;;;;;;5032379;28;20536;-70
2022/02/28 10:32:02;;;;;;;6.63;2.38;;;14.40;72.40;;;;;;5044367;28;20041;-70
2022/02/28 10:34:30;;;;;;;7.35;2.58;;;14.00;72.30;;;;;;5034725;28;20552;-70
2022/02/28 10:36:58;;;;;;;9.23;2.72;;;13.50;70.90;;;;;;5036670;28;20028;-70
2022/02/28 10:39:30;;;;;;;6.68;1.90;;;14.10;71.90;;;;;;5043493;28;20082;-70
2022/02/28 10:42:12;;;;;;;5.35;1.85;;;14.20;69.10;;;;;;5035950;28;20024;-70
2022/02/28 10:44:39;;;;;;;7.80;2.55;;;14.50;68.70;;;;;;5034598;28;20020;-70
2022/02/28 10:47:07;;;;;;;6.10;2.00;;;14.00;71.30;;;;;;5034242;28;20575;-70
2022/02/28 10:49:34;;;;;;;6.22;1.75;;;14.70;70.50;;;;;;5033208;28;20536;-70
2022/02/28 10:52:02;;;;;;;7.05;2.25;;;14.70;67.50;;;;;;5056956;28;20037;-69
2022/02/28 10:54:38;;;;;;;3.80;1.50;;;15.40;65.70;;;;;;5035599;28;20025;-69
2022/02/28 10:57:08;;;;;;;6.95;2.63;;;15.50;66.70;;;;;;5038223;28;20024;-69
2022/02/28 10:59:55;;;;;;;6.18;1.80;;;15.00;66.80;;;;;;5042955;28;20045;-69
2022/02/28 11:02:27;;;;;;;5.78;1.70;;;15.80;65.00;;;;;;5048465;28;20025;-69
2022/02/28 11:05:12;;;;;;;6.85;2.15;;;16.70;65.10;;;;;;5038902;28;20029;-69
2022/02/28 11:07:43;;;;;;;5.43;1.83;;;17.10;62.60;;;;;;5037162;28;20025;-69
2022/02/28 11:10:10;;;;;;;6.10;1.85;;;16.90;64.50;;;;;;5037733;28;20057;-69
2022/02/28 11:12:36;;;;;;;6.93;2.28;;;16.80;62.90;;;;;;5041317;28;20030;-69
2022/02/28 11:15:21;;;;;;;7.82;2.55;;;17.00;60.30;;;;;;5037949;28;20095;-69
2022/02/28 11:17:48;;;;;;;9.30;2.67;;;17.10;59.60;;;;;;5041095;28;21079;-69
2022/02/28 11:20:17;;;;;;;8.00;2.70;;;17.00;59.10;;;;;;5050692;28;20048;-64
2022/02/28 11:22:44;;;;;;;6.07;2.38;;;16.50;61.10;;;;;;5045530;28;20091;-67
2022/02/28 11:25:15;;;;;;;5.75;2.08;;;17.20;63.90;;;;;;5040950;28;20440;-65
2022/02/28 11:27:43;;;;;;;7.20;2.28;;;17.50;59.90;;;;;;5044530;28;20587;-67
2022/02/28 11:30:12;;;;;;;5.43;1.85;;;17.30;60.40;;;;;;5038493;28;20038;-68
2022/02/28 11:32:38;;;;;;;6.18;1.88;;;17.70;59.80;;;;;;5042267;28;20441;-68
2022/02/28 11:35:43;;;;;;;5.47;1.98;;;17.70;58.70;;;;;;5039330;28;20028;-68
2022/02/28 11:38:31;;;;;;;7.43;2.40;;;18.10;59.00;;;;;;5041256;28;20033;-68
2022/02/28 11:41:04;;;;;;;5.43;1.85;;;18.10;59.40;;;;;;5040560;28;20695;-68
2022/02/28 11:43:52;;;;;;;7.45;2.10;;;18.60;56.80;;;;;;5039789;28;20048;-68
2022/02/28 11:46:24;;;;;;;6.55;2.00;;;18.80;53.60;;;;;;5056220;28;20060;-68
2022/02/28 11:48:55;;;;;;;6.78;2.38;;;17.90;55.90;;;;;;5057641;28;20032;-68
2022/02/28 11:51:20;;;;;;;6.70;2.28;;;17.90;58.30;;;;;;5035367;28;20029;-68
2022/02/28 11:53:48;;;;;;;7.47;2.08;;;17.40;56.90;;;;;;5042154;28;20024;-68
2022/02/28 11:56:16;;;;;;;6.90;2.00;;;17.70;56.40;;;;;;5042991;28;20032;-68
2022/02/28 11:58:49;;;;;;;6.00;2.30;;;18.70;56.70;;;;;;5038581;28;20044;-68
2022/02/28 12:01:17;;;;;;;7.55;2.78;;;18.90;55.30;;;;;;5037410;28;20105;-68
2022/02/28 12:04:15;;;;;;;9.02;2.10;;;18.50;55.80;;;;;;5040622;28;20021;-68
2022/02/28 12:07:03;;;;;;;5.45;1.88;;;19.10;57.10;;;;;;5029254;28;20102;-68
2022/02/28 12:09:35;;;;;;;6.45;1.92;;;19.00;55.40;;;;;;5043452;28;20039;-68
2022/02/28 12:12:13;;;;;;;7.05;2.22;;;18.60;56.00;;;;;;5039381;28;20037;-68
2022/02/28 12:15:00;;;;;;;6.70;2.00;;;18.00;54.10;;;;;;5045519;28;20024;-68
2022/02/28 12:17:32;;;;;;;7.63;2.53;;;18.60;54.10;;;;;;5043616;28;20045;-68
2022/02/28 12:20:28;;;;;;;6.38;2.35;;;17.50;54.90;;;;;;5044886;28;20093;-68
2022/02/28 12:22:58;;;;;;;7.35;1.98;;;18.60;54.70;;;;;;5040493;28;20083;-68
2022/02/28 12:25:47;;;;;;;6.80;2.10;;;19.50;53.40;;;;;;5044262;28;20234;-68
2022/02/28 12:28:29;;;;;;;8.68;2.78;;;18.80;54.00;;;;;;5058584;28;20030;-68
2022/02/28 12:31:13;;;;;;;7.65;2.03;;;19.40;52.40;;;;;;5032596;28;20071;-68
2022/02/28 12:33:39;;;;;;;7.65;2.50;;;20.50;52.60;;;;;;5028482;28;20025;-69
2022/02/28 12:36:09;;;;;;;5.43;2.10;;;18.40;53.00;;;;;;5040756;28;20025;-69
2022/02/28 12:38:36;;;;;;;8.73;2.60;;;18.70;52.70;;;;;;5041274;28;20075;-69
2022/02/28 12:41:04;;;;;;;6.93;2.25;;;18.20;52.80;;;;;;5036696;28;20049;-68
2022/02/28 12:43:32;;;;;;;6.90;2.40;;;17.90;53.90;;;;;;5035499;28;20843;-68
2022/02/28 12:46:01;;;;;;;9.07;2.78;;;18.10;53.70;;;;;;5037578;28;20116;-68
2022/02/28 12:48:29;;;;;;;6.47;2.40;;;17.70;54.80;;;;;;5032742;28;20043;-68
2022/02/28 12:50:57;;;;;;;7.55;2.40;;;17.90;53.60;;;;;;5039473;28;20377;-68